Time;durP1;ratioP1;P1;durP2;ratioP2;P2;SDS_P1;SDS_P2;PMS_P1;PMS_P2;Temp;Humidity;BMP_temperature;BMP_pressure;BME280_temperature;BME280_humidity;BME280_pressure;Samples;Min_cycle;Max_cycle;Signal;HPM_P1;HPM_P2
2021/06/11 00:00:58;;;;;;;1.00;1.00;;;;;;;10.25;100.00;93450.19;2106704;28;20023;-87
2021/06/11 00:01:59;;;;;;;1.45;1.35;;;;;;;10.22;100.00;93452.88;2106818;28;20032;-88
2021/06/11 00:02:59;;;;;;;2.40;1.10;;;;;;;10.19;100.00;93448.34;2106588;28;20031;-87
2021/06/11 00:04:00;;;;;;;1.27;1.23;;;;;;;10.20;100.00;93450.63;2106514;28;20485;-88
2021/06/11 00:05:01;;;;;;;1.10;1.10;;;;;;;10.18;100.00;93444.16;2106518;28;20023;-88
2021/06/11 00:06:02;;;;;;;1.00;1.00;;;;;;;10.21;100.00;93451.38;2085420;28;20038;-88
2021/06/11 00:07:03;;;;;;;1.35;1.25;;;;;;;10.20;100.00;93444.53;2094449;28;20592;-88
2021/06/11 00:08:04;;;;;;;1.08;1.08;;;;;;;10.15;100.00;93453.00;2087624;28;20113;-90
2021/06/11 00:09:07;;;;;;;1.00;1.00;;;;;;;10.12;100.00;93445.78;2089717;28;20067;-88
2021/06/11 00:10:11;;;;;;;1.10;1.10;;;;;;;10.17;100.00;93442.66;2089743;28;20055;-88
2021/06/11 00:11:12;;;;;;;1.40;1.02;;;;;;;10.12;100.00;93451.13;2089729;28;20119;-88
2021/06/11 00:12:14;;;;;;;1.00;1.00;;;;;;;10.14;100.00;93443.44;2081723;28;20033;-88
2021/06/11 00:13:15;;;;;;;1.20;1.20;;;;;;;10.17;100.00;93453.34;2081512;28;20071;-88
2021/06/11 00:14:16;;;;;;;1.10;1.10;;;;;;;10.11;100.00;93445.03;2081102;28;20688;-87
2021/06/11 00:15:17;;;;;;;0.90;0.90;;;;;;;10.17;100.00;93445.31;2081296;28;20379;-87
2021/06/11 00:16:17;;;;;;;1.02;1.00;;;;;;;10.16;100.00;93444.56;2073255;28;20041;-88
2021/06/11 00:17:18;;;;;;;1.20;1.20;;;;;;;10.15;100.00;93443.06;2073038;28;20022;-89
2021/06/11 00:18:19;;;;;;;1.27;1.20;;;;;;;10.11;100.00;93446.94;2081683;28;20093;-87
2021/06/11 00:19:20;;;;;;;1.30;1.17;;;;;;;10.12;100.00;93443.09;2089873;28;20430;-89
2021/06/11 00:20:21;;;;;;;1.08;1.08;;;;;;;10.13;100.00;93441.94;2091251;28;20117;-87
2021/06/11 00:21:22;;;;;;;1.13;1.13;;;;;;;10.12;100.00;93446.53;2090724;28;20048;-89
2021/06/11 00:22:22;;;;;;;1.05;1.05;;;;;;;10.09;100.00;93455.34;2089803;28;20021;-88
2021/06/11 00:23:23;;;;;;;1.00;1.00;;;;;;;10.08;100.00;93443.91;2091048;28;20021;-89
2021/06/11 00:24:24;;;;;;;1.00;1.00;;;;;;;10.07;100.00;93447.00;2101917;28;20051;-87
2021/06/11 00:25:25;;;;;;;1.05;1.05;;;;;;;10.02;100.00;93442.09;2089782;28;20025;-87
2021/06/11 00:26:26;;;;;;;0.93;0.93;;;;;;;9.99;100.00;93443.66;2089346;28;20037;-87
2021/06/11 00:27:27;;;;;;;1.27;1.23;;;;;;;10.00;100.00;93441.75;2083005;28;20086;-88
2021/06/11 00:28:27;;;;;;;1.80;1.10;;;;;;;10.01;100.00;93446.69;2088693;28;20029;-89
2021/06/11 00:29:28;;;;;;;1.00;1.00;;;;;;;9.99;100.00;93446.34;2081070;28;20060;-88
2021/06/11 00:30:31;;;;;;;1.25;1.15;;;;;;;9.96;100.00;93447.13;2076345;28;20025;-87
2021/06/11 00:31:32;;;;;;;1.10;1.10;;;;;;;9.99;100.00;93442.91;2086464;28;20030;-88
2021/06/11 00:32:34;;;;;;;1.00;1.00;;;;;;;9.98;100.00;93442.16;2078921;28;20044;-86
2021/06/11 00:33:34;;;;;;;1.30;1.20;;;;;;;9.94;100.00;93448.72;2085501;28;20029;-88
2021/06/11 00:34:35;;;;;;;1.02;1.02;;;;;;;9.99;100.00;93443.66;2094427;28;20492;-88
2021/06/11 00:35:36;;;;;;;1.25;1.20;;;;;;;9.83;100.00;93449.63;2089129;28;20017;-88
2021/06/11 00:36:37;;;;;;;1.00;1.00;;;;;;;9.85;100.00;93449.19;2081132;28;20041;-88
2021/06/11 00:37:38;;;;;;;1.10;1.10;;;;;;;9.83;100.00;93451.50;2089040;28;20035;-89
2021/06/11 00:38:39;;;;;;;1.10;1.10;;;;;;;9.83;100.00;93441.59;2088096;28;20029;-87
2021/06/11 00:39:39;;;;;;;1.15;1.15;;;;;;;9.84;100.00;93453.03;2082031;28;20025;-87
2021/06/11 00:40:42;;;;;;;0.98;0.98;;;;;;;9.79;100.00;93445.50;2082064;28;20063;-88
2021/06/11 00:41:43;;;;;;;1.15;1.13;;;;;;;9.77;100.00;93445.88;2085270;28;20025;-87
2021/06/11 00:42:43;;;;;;;1.38;1.27;;;;;;;9.77;100.00;93437.09;2073005;28;20084;-89
2021/06/11 00:43:44;;;;;;;1.20;1.20;;;;;;;9.72;100.00;93440.22;2075198;28;20026;-87
2021/06/11 00:44:45;;;;;;;1.13;1.10;;;;;;;9.71;100.00;93444.06;2088520;28;20055;-87
2021/06/11 00:45:46;;;;;;;1.20;1.20;;;;;;;9.69;100.00;93439.09;2097624;28;20028;-87
2021/06/11 00:46:46;;;;;;;1.20;1.10;;;;;;;9.67;100.00;93440.69;2097452;28;20016;-87
2021/06/11 00:47:48;;;;;;;1.10;1.10;;;;;;;9.68;100.00;93442.94;2097312;28;20020;-90
2021/06/11 00:48:48;;;;;;;1.05;1.05;;;;;;;9.69;100.00;93436.44;2089001;28;20029;-88
2021/06/11 00:49:50;;;;;;;1.40;1.30;;;;;;;9.70;100.00;93429.97;2089024;28;20030;-90
2021/06/11 00:50:50;;;;;;;1.20;1.20;;;;;;;9.68;100.00;93439.53;2080948;28;20036;-87
2021/06/11 00:51:52;;;;;;;1.80;1.30;;;;;;;9.68;100.00;93437.59;2088624;28;20116;-87
2021/06/11 00:52:54;;;;;;;1.10;1.10;;;;;;;9.69;100.00;93439.09;2089147;28;20021;-88
2021/06/11 00:53:55;;;;;;;1.10;1.10;;;;;;;9.66;100.00;93442.59;2094827;28;20024;-87
2021/06/11 00:54:56;;;;;;;1.48;1.30;;;;;;;9.66;100.00;93437.25;2097276;28;20033;-87
2021/06/11 00:55:57;;;;;;;1.30;1.20;;;;;;;9.64;100.00;93434.22;2089983;28;20028;-88
2021/06/11 00:56:58;;;;;;;1.40;1.30;;;;;;;9.65;100.00;93441.06;2096905;28;20031;-89
2021/06/11 00:57:58;;;;;;;1.42;1.33;;;;;;;9.72;100.00;93440.22;2097423;28;20023;-87
2021/06/11 00:58:59;;;;;;;1.10;1.10;;;;;;;9.71;100.00;93438.72;2080576;28;20378;-86
2021/06/11 01:00:00;;;;;;;1.00;1.00;;;;;;;9.70;100.00;93434.53;2072372;28;20034;-87
2021/06/11 01:01:01;;;;;;;1.30;1.20;;;;;;;9.66;100.00;93428.47;2072395;28;20034;-87
2021/06/11 01:02:02;;;;;;;1.35;1.25;;;;;;;9.53;100.00;93426.38;2089294;28;20064;-89
2021/06/11 01:03:03;;;;;;;1.10;1.10;;;;;;;9.50;100.00;93432.50;2096840;28;20025;-89
2021/06/11 01:04:04;;;;;;;1.20;1.10;;;;;;;9.53;100.00;93433.63;2088698;28;20021;-88
2021/06/11 01:05:08;;;;;;;1.10;1.10;;;;;;;9.51;100.00;93433.25;2088557;28;20119;-87
2021/06/11 01:06:11;;;;;;;1.33;1.23;;;;;;;9.52;100.00;93427.50;2089240;28;20668;-88
2021/06/11 01:07:12;;;;;;;1.23;1.20;;;;;;;9.51;100.00;93434.00;2096956;28;20032;-87
2021/06/11 01:08:16;;;;;;;1.10;1.10;;;;;;;9.50;100.00;93432.50;2080504;28;20032;-88
2021/06/11 01:09:17;;;;;;;1.10;1.10;;;;;;;9.55;100.00;93436.63;2072411;28;20553;-89
2021/06/11 01:10:18;;;;;;;1.23;1.23;;;;;;;9.55;100.00;93437.38;2076264;28;20041;-87
2021/06/11 01:11:21;;;;;;;1.10;1.10;;;;;;;9.49;100.00;93431.00;2072627;28;20038;-86
2021/06/11 01:12:22;;;;;;;1.10;1.10;;;;;;;9.53;100.00;93439.72;2080665;28;20127;-88
2021/06/11 01:13:23;;;;;;;1.10;1.10;;;;;;;9.50;100.00;93424.50;2080443;28;20060;-88
2021/06/11 01:14:24;;;;;;;1.05;1.05;;;;;;;9.43;100.00;93437.91;2076579;28;20026;-89
2021/06/11 01:15:25;;;;;;;1.30;1.30;;;;;;;9.48;100.00;93431.38;2077601;28;20034;-87
2021/06/11 01:16:26;;;;;;;1.33;1.23;;;;;;;9.44;100.00;93436.00;2076565;28;20053;-86
2021/06/11 01:17:27;;;;;;;1.20;1.20;;;;;;;9.42;100.00;93436.41;2077047;28;20559;-87
2021/06/11 01:18:27;;;;;;;1.23;1.10;;;;;;;9.41;100.00;93436.81;2085615;28;20123;-89
2021/06/11 01:19:49;;;;;;;1.13;1.13;;;;;;;9.40;100.00;93437.97;2078987;28;20534;-89
2021/06/11 01:20:50;;;;;;;1.20;1.20;;;;;;;9.37;100.00;93434.19;2081692;28;20021;-86
2021/06/11 01:21:58;;;;;;;1.20;1.20;;;;;;;9.36;100.00;93438.00;2072539;28;20112;-88
2021/06/11 01:23:36;;;;;;;1.15;1.10;;;;;;;9.34;100.00;93438.41;2077168;28;20033;-87
2021/06/11 01:24:51;;;;;;;1.30;1.20;;;;;;;9.37;100.00;93439.53;2090286;28;20020;-88
2021/06/11 01:26:11;;;;;;;1.23;1.23;;;;;;;9.33;100.00;93438.81;2090881;28;20021;-89
2021/06/11 01:27:12;;;;;;;1.10;1.10;;;;;;;9.30;100.00;93439.59;2099303;28;20033;-89
2021/06/11 01:28:13;;;;;;;1.10;1.10;;;;;;;9.29;100.00;93440.75;2096582;28;20028;-88
2021/06/11 01:29:20;;;;;;;1.20;1.20;;;;;;;9.28;100.00;93433.91;2094626;28;20031;-88
2021/06/11 01:30:24;;;;;;;1.00;1.00;;;;;;;9.22;100.00;93438.16;2088265;28;20033;-88
2021/06/11 01:31:29;;;;;;;1.20;1.20;;;;;;;9.25;100.00;93437.38;2087522;28;20498;-88
2021/06/11 01:32:33;;;;;;;1.73;1.30;;;;;;;9.28;100.00;93433.91;2080347;28;20033;-87
2021/06/11 01:33:36;;;;;;;1.30;1.30;;;;;;;9.19;100.00;93436.31;2072433;28;20036;-87
2021/06/11 01:34:39;;;;;;;1.10;1.10;;;;;;;9.20;100.00;93435.91;2072621;28;20049;-87
2021/06/11 01:35:48;;;;;;;1.30;1.20;;;;;;;9.21;100.00;93444.66;2070626;28;20449;-89
2021/06/11 01:36:53;;;;;;;1.30;1.30;;;;;;;9.20;100.00;93438.56;2080363;28;20048;-89
2021/06/11 01:38:01;;;;;;;1.30;1.30;;;;;;;9.19;100.00;93441.63;2088980;28;20117;-86
2021/06/11 01:39:06;;;;;;;1.58;1.48;;;;;;;9.26;100.00;93436.22;2088112;28;20481;-88
2021/06/11 01:40:10;;;;;;;1.77;1.33;;;;;;;9.26;100.00;93434.31;2072987;28;20032;-87
2021/06/11 01:41:15;;;;;;;1.30;1.30;;;;;;;9.22;100.00;93440.81;2081202;28;20033;-89
2021/06/11 01:42:16;;;;;;;1.10;1.10;;;;;;;9.19;100.00;93439.72;2096082;28;20051;-88
2021/06/11 01:43:19;;;;;;;1.35;1.35;;;;;;;9.18;100.00;93443.56;2095640;28;20024;-88
2021/06/11 01:44:22;;;;;;;1.45;1.10;;;;;;;9.17;100.00;93431.34;2086113;28;20498;-88
2021/06/11 01:45:23;;;;;;;1.45;1.30;;;;;;;9.14;100.00;93436.75;2079880;28;20021;-90
2021/06/11 01:46:27;;;;;;;2.03;1.30;;;;;;;9.15;100.00;93443.59;2086577;28;20060;-87
2021/06/11 01:47:28;;;;;;;1.27;1.20;;;;;;;9.15;100.00;93446.25;2089157;28;20048;-88
2021/06/11 01:48:29;;;;;;;2.80;1.40;;;;;;;9.15;100.00;93441.69;2088478;28;20494;-88
2021/06/11 01:49:30;;;;;;;1.73;1.30;;;;;;;9.12;100.00;93441.72;2096505;28;20029;-88
2021/06/11 01:50:34;;;;;;;1.23;1.23;;;;;;;9.16;100.00;93443.19;2083616;28;20105;-87
2021/06/11 01:51:37;;;;;;;1.20;1.20;;;;;;;9.15;100.00;93444.34;2072680;28;20022;-88
2021/06/11 01:52:38;;;;;;;1.20;1.20;;;;;;;9.16;100.00;93442.44;2070591;28;20053;-89
2021/06/11 01:53:42;;;;;;;1.50;1.40;;;;;;;9.14;100.00;93442.09;2080247;28;20029;-89
2021/06/11 01:54:45;;;;;;;1.23;1.23;;;;;;;9.11;100.00;93446.28;2087113;28;20098;-88
2021/06/11 01:55:47;;;;;;;1.30;1.30;;;;;;;9.10;100.00;93444.03;2085040;28;20033;-88
2021/06/11 01:56:49;;;;;;;1.50;1.40;;;;;;;9.10;100.00;93452.03;2077339;28;20123;-87
2021/06/11 01:57:50;;;;;;;1.30;1.30;;;;;;;9.11;100.00;93446.28;2072205;28;20028;-90
2021/06/11 01:58:51;;;;;;;1.27;1.27;;;;;;;9.07;100.00;93443.66;2088784;28;20509;-89
2021/06/11 01:59:53;;;;;;;1.45;1.45;;;;;;;9.10;100.00;93444.78;2088464;28;20036;-88
2021/06/11 02:00:54;;;;;;;1.10;1.10;;;;;;;9.05;100.00;93448.66;2088578;28;20089;-86
2021/06/11 02:01:56;;;;;;;1.40;1.30;;;;;;;8.99;100.00;93450.22;2092555;28;20032;-88
2021/06/11 02:02:58;;;;;;;1.40;1.40;;;;;;;8.98;100.00;93454.03;2092259;28;20075;-89
2021/06/11 02:05:40;;;;;;;;;;;;;;;9.00;100.00;93446.41;2134771;27;20544;-86
2021/06/11 02:06:42;;;;;;;1.40;1.40;;;;;;;9.00;100.00;93440.31;2127856;27;19955;-87
2021/06/11 02:07:45;;;;;;;1.50;1.40;;;;;;;8.96;100.00;93440.38;2107526;28;20051;-85
2021/06/11 02:08:49;;;;;;;1.35;1.35;;;;;;;8.94;100.00;93442.66;2121349;27;20024;-86
2021/06/11 02:09:51;;;;;;;1.30;1.30;;;;;;;8.96;100.00;93447.59;2114835;27;20043;-86
2021/06/11 02:10:53;;;;;;;1.30;1.30;;;;;;;8.95;100.00;93438.06;2109269;28;20021;-86
2021/06/11 02:11:54;;;;;;;1.33;1.33;;;;;;;8.93;100.00;93441.16;2107950;28;20020;-87
2021/06/11 02:12:55;;;;;;;1.65;1.55;;;;;;;8.96;100.00;93443.03;2104048;27;20119;-87
2021/06/11 02:13:56;;;;;;;1.60;1.50;;;;;;;9.01;100.00;93439.16;2120921;28;20031;-86
2021/06/11 02:14:58;;;;;;;1.45;1.40;;;;;;;8.97;100.00;93441.88;2107342;27;20012;-86
2021/06/11 02:15:59;;;;;;;1.35;1.35;;;;;;;8.99;100.00;93436.13;2106044;27;20028;-85
2021/06/11 02:17:00;;;;;;;1.48;1.38;;;;;;;8.92;100.00;93434.31;2112772;28;20049;-88
2021/06/11 02:18:02;;;;;;;1.70;1.30;;;;;;;8.94;100.00;93439.22;2110900;27;20045;-86
2021/06/11 02:19:03;;;;;;;1.40;1.30;;;;;;;8.95;100.00;93438.81;2106002;28;20020;-87
2021/06/11 02:20:11;;;;;;;1.88;1.45;;;;;;;8.92;100.00;93439.63;2116844;27;20522;-86
2021/06/11 02:21:14;;;;;;;1.38;1.38;;;;;;;8.90;100.00;93431.25;2112233;27;20031;-87
2021/06/11 02:22:16;;;;;;;1.50;1.40;;;;;;;8.91;100.00;93429.34;2117226;28;20117;-89
2021/06/11 02:23:16;;;;;;;1.27;1.27;;;;;;;8.90;100.00;93439.25;2106272;28;20026;-88
2021/06/11 02:24:17;;;;;;;1.27;1.27;;;;;;;8.88;100.00;93430.91;2114024;28;20034;-85
2021/06/11 02:25:21;;;;;;;1.20;1.20;;;;;;;8.86;100.00;93435.13;2111600;28;20868;-86
2021/06/11 02:26:22;;;;;;;1.38;1.27;;;;;;;8.90;100.00;93425.94;2105718;27;20035;-86
2021/06/11 02:27:23;;;;;;;1.50;1.50;;;;;;;8.90;100.00;93428.59;2109079;27;20510;-86
2021/06/11 02:28:24;;;;;;;1.40;1.40;;;;;;;8.87;100.00;93426.75;2114183;28;20016;-88
2021/06/11 02:29:25;;;;;;;1.40;1.30;;;;;;;8.85;100.00;93428.28;2113390;28;20039;-87
2021/06/11 02:30:25;;;;;;;1.60;1.33;;;;;;;8.83;100.00;93424.13;2105720;28;20814;-85
2021/06/11 02:31:26;;;;;;;1.67;1.58;;;;;;;8.82;100.00;93421.81;2112989;28;20061;-87
2021/06/11 02:32:33;;;;;;;1.33;1.30;;;;;;;8.82;100.00;93424.50;2105426;28;20106;-87
2021/06/11 02:33:35;;;;;;;1.50;1.40;;;;;;;8.76;100.00;93423.41;2104350;27;20024;-87
2021/06/11 02:34:35;;;;;;;1.30;1.30;;;;;;;8.74;100.00;93423.06;2114612;27;20023;-86
2021/06/11 02:35:36;;;;;;;1.25;1.25;;;;;;;8.74;100.00;93423.06;2112677;28;20028;-85
2021/06/11 02:36:37;;;;;;;1.30;1.30;;;;;;;8.76;100.00;93426.09;2101723;28;20043;-86
2021/06/11 02:37:37;;;;;;;1.20;1.20;;;;;;;8.77;100.00;93424.94;2113847;28;20043;-87
2021/06/11 02:38:38;;;;;;;1.60;1.50;;;;;;;8.79;100.00;93422.63;2107528;28;20024;-88
2021/06/11 02:39:39;;;;;;;1.70;1.60;;;;;;;8.84;100.00;93424.88;2103443;28;20027;-87
2021/06/11 02:40:39;;;;;;;1.40;1.40;;;;;;;8.85;100.00;93426.38;2105399;28;20046;-86
2021/06/11 02:41:48;;;;;;;1.48;1.42;;;;;;;8.80;100.00;93421.47;2126121;27;20022;-88
2021/06/11 02:42:56;;;;;;;1.42;1.42;;;;;;;8.78;100.00;93418.44;2121699;27;20505;-86
2021/06/11 02:43:59;;;;;;;1.40;1.30;;;;;;;8.78;100.00;93424.56;2118613;27;20115;-85
2021/06/11 02:45:13;;;;;;;1.30;1.30;;;;;;;8.77;100.00;93423.00;2116586;28;20032;-87
2021/06/11 02:46:49;;;;;;;1.60;1.50;;;;;;;8.77;100.00;93424.94;2112035;27;20052;-86
2021/06/11 02:48:13;;;;;;;1.25;1.25;;;;;;;8.76;100.00;93421.50;2088052;28;20039;-88
2021/06/11 02:49:25;;;;;;;1.40;1.40;;;;;;;8.77;100.00;93425.69;2121103;27;20050;-86
2021/06/11 02:50:36;;;;;;;1.60;1.50;;;;;;;8.77;100.00;93428.34;2116980;27;20065;-87
2021/06/11 02:51:42;;;;;;;1.80;1.70;;;;;;;8.78;100.00;93426.44;2114581;27;20406;-87
2021/06/11 02:52:48;;;;;;;1.40;1.30;;;;;;;8.70;100.00;93422.34;2106173;28;20111;-89
2021/06/11 02:53:50;;;;;;;1.60;1.50;;;;;;;8.71;100.00;93421.94;2114375;27;20023;-88
2021/06/11 02:54:58;;;;;;;1.60;1.50;;;;;;;8.70;100.00;93422.34;2117892;28;20110;-86
2021/06/11 02:56:05;;;;;;;1.65;1.55;;;;;;;8.65;100.00;93426.19;2117968;27;20608;-88
2021/06/11 02:57:12;;;;;;;1.38;1.38;;;;;;;8.68;100.00;93428.06;2105361;28;20034;-88
2021/06/11 02:58:17;;;;;;;1.40;1.40;;;;;;;8.69;100.00;93423.47;2114869;27;20023;-88
2021/06/11 02:59:22;;;;;;;1.73;1.63;;;;;;;8.69;100.00;93421.59;2107905;28;20048;-87
2021/06/11 03:00:27;;;;;;;1.50;1.40;;;;;;;8.68;100.00;93424.63;2103210;28;20508;-89
2021/06/11 03:01:29;;;;;;;1.55;1.45;;;;;;;8.64;100.00;93424.66;2103917;28;20354;-90
2021/06/11 03:02:46;;;;;;;1.38;1.38;;;;;;;8.64;100.00;93424.66;2103629;28;20024;-87
2021/06/11 03:03:51;;;;;;;1.52;1.40;;;;;;;8.65;100.00;93426.19;2105460;28;20410;-87
2021/06/11 03:04:54;;;;;;;1.35;1.35;;;;;;;8.67;100.00;93429.22;2096383;28;20070;-88
2021/06/11 03:05:59;;;;;;;1.35;1.35;;;;;;;8.60;100.00;93429.28;2111480;28;20044;-88
2021/06/11 03:07:01;;;;;;;1.50;1.50;;;;;;;8.61;100.00;93428.13;2096027;28;20021;-86
2021/06/11 03:08:07;;;;;;;1.60;1.50;;;;;;;8.58;100.00;93432.34;2108589;28;20020;-88
2021/06/11 03:09:10;;;;;;;1.50;1.40;;;;;;;8.60;100.00;93429.28;2095838;28;20259;-89
2021/06/11 03:10:12;;;;;;;1.80;1.70;;;;;;;8.52;100.00;93425.19;2097592;28;20740;-87
2021/06/11 03:11:19;;;;;;;1.50;1.50;;;;;;;8.52;100.00;93430.50;2108687;28;20400;-88
2021/06/11 03:12:20;;;;;;;1.48;1.42;;;;;;;8.52;100.00;93420.59;2109538;28;20032;-89
2021/06/11 03:13:22;;;;;;;1.42;1.42;;;;;;;8.52;100.00;93422.53;2114734;27;20084;-89
2021/06/11 03:14:25;;;;;;;1.40;1.40;;;;;;;8.56;100.00;93423.25;2115180;28;20065;-89
2021/06/11 03:15:29;;;;;;;1.50;1.50;;;;;;;8.53;100.00;93426.69;2097475;28;20079;-87
2021/06/11 03:16:30;;;;;;;1.80;1.70;;;;;;;8.57;100.00;93435.41;2092017;28;20111;-89
2021/06/11 03:17:42;;;;;;;1.50;1.50;;;;;;;8.56;100.00;93424.00;2100680;28;20033;-87
2021/06/11 03:18:52;;;;;;;1.42;1.42;;;;;;;8.54;100.00;93428.19;2095576;28;20032;-89
2021/06/11 03:19:57;;;;;;;1.55;1.50;;;;;;;8.58;100.00;93428.91;2100367;28;20027;-87
2021/06/11 03:21:04;;;;;;;1.58;1.50;;;;;;;8.58;100.00;93423.59;2101512;28;20031;-90
2021/06/11 03:22:11;;;;;;;1.35;1.35;;;;;;;8.58;100.00;93423.59;2094946;28;20453;-87
2021/06/11 03:23:19;;;;;;;1.30;1.30;;;;;;;8.54;100.00;93425.53;2096848;28;20123;-87
2021/06/11 03:24:51;;;;;;;1.73;1.63;;;;;;;8.53;100.00;93427.44;2098962;28;20054;-87
2021/06/11 03:25:56;;;;;;;1.60;1.50;;;;;;;8.54;100.00;93425.53;2090483;27;20476;-89
2021/06/11 03:27:05;;;;;;;1.70;1.60;;;;;;;8.54;100.00;93426.28;2104549;28;20024;-89
2021/06/11 03:28:12;;;;;;;1.50;1.50;;;;;;;8.53;100.00;93424.03;2100611;28;20569;-87
2021/06/11 03:29:18;;;;;;;1.52;1.52;;;;;;;8.51;100.00;93427.06;2107493;28;20049;-89
2021/06/11 03:30:21;;;;;;;1.77;1.63;;;;;;;8.49;100.00;93429.38;2106373;27;20020;-87
2021/06/11 03:31:28;;;;;;;1.30;1.30;;;;;;;8.50;100.00;93428.22;2114366;28;20118;-89
2021/06/11 03:32:33;;;;;;;1.27;1.27;;;;;;;8.51;100.00;93426.31;2112436;27;20034;-91
2021/06/11 03:33:37;;;;;;;1.30;1.30;;;;;;;8.49;100.00;93428.63;2099393;28;20024;-90
2021/06/11 03:34:42;;;;;;;1.40;1.40;;;;;;;8.54;100.00;93428.19;2105059;28;20074;-87
2021/06/11 03:35:47;;;;;;;1.60;1.50;;;;;;;8.49;100.00;93432.03;2101362;28;20487;-89
2021/06/11 03:36:50;;;;;;;1.55;1.42;;;;;;;8.52;100.00;93428.59;2096748;28;20035;-88
2021/06/11 03:37:55;;;;;;;1.60;1.60;;;;;;;8.55;100.00;93427.03;2090612;28;20024;-87
2021/06/11 03:39:01;;;;;;;1.98;1.40;;;;;;;8.54;100.00;93431.63;2101423;28;20519;-87
2021/06/11 03:40:09;;;;;;;1.42;1.40;;;;;;;8.49;100.00;93428.63;2109818;28;20027;-89
2021/06/11 03:41:13;;;;;;;1.60;1.50;;;;;;;8.48;100.00;93427.88;2101481;28;20035;-88
2021/06/11 03:42:14;;;;;;;1.40;1.40;;;;;;;8.50;100.00;93432.78;2109653;28;20031;-87
2021/06/11 03:43:16;;;;;;;1.50;1.50;;;;;;;8.49;100.00;93432.03;2103675;28;20024;-88
2021/06/11 03:44:17;;;;;;;1.88;1.52;;;;;;;8.48;100.00;93435.88;2096327;28;20097;-89
2021/06/11 03:45:18;;;;;;;1.63;1.52;;;;;;;8.51;100.00;93443.03;2089772;28;20033;-87
2021/06/11 03:46:19;;;;;;;1.40;1.40;;;;;;;8.50;100.00;93433.56;2092685;28;20388;-89
2021/06/11 03:47:25;;;;;;;1.60;1.50;;;;;;;8.49;100.00;93428.63;2100501;28;20055;-88
2021/06/11 03:48:28;;;;;;;1.40;1.40;;;;;;;8.47;100.00;93434.34;2109869;27;20023;-88
2021/06/11 03:49:32;;;;;;;1.50;1.40;;;;;;;8.47;100.00;93431.69;2101697;28;20040;-88
2021/06/11 03:50:34;;;;;;;1.50;1.40;;;;;;;8.47;100.00;93430.91;2100156;28;20025;-88
2021/06/11 03:51:39;;;;;;;1.58;1.48;;;;;;;8.50;100.00;93430.13;2100337;28;20024;-86
2021/06/11 03:52:42;;;;;;;1.50;1.50;;;;;;;8.50;100.00;93432.78;2101220;27;20029;-88
2021/06/11 03:53:44;;;;;;;1.80;1.70;;;;;;;8.48;100.00;93432.44;2107334;28;20016;-87
2021/06/11 03:54:46;;;;;;;1.60;1.60;;;;;;;8.54;100.00;93428.94;2106377;28;20019;-89
2021/06/11 03:55:48;;;;;;;1.40;1.30;;;;;;;8.56;100.00;93428.56;2098070;28;20059;-86
2021/06/11 03:56:53;;;;;;;1.40;1.30;;;;;;;8.58;100.00;93424.34;2100440;28;20028;-88
2021/06/11 03:58:08;;;;;;;1.35;1.35;;;;;;;8.57;100.00;93433.50;2094424;28;20473;-88
2021/06/11 03:59:12;;;;;;;1.52;1.50;;;;;;;8.55;100.00;93427.78;2096652;28;20043;-88
2021/06/11 04:00:14;;;;;;;1.50;1.40;;;;;;;8.56;100.00;93425.91;2104039;28;20035;-88
2021/06/11 04:01:20;;;;;;;1.70;1.60;;;;;;;8.58;100.00;93428.91;2110020;28;20500;-87
2021/06/11 04:02:21;;;;;;;1.40;1.30;;;;;;;8.58;100.00;93420.94;2091816;28;20429;-85
2021/06/11 04:03:21;;;;;;;2.63;1.92;;;;;;;8.58;100.00;93427.00;2100193;28;20122;-86
2021/06/11 04:04:22;;;;;;;1.67;1.58;;;;;;;8.56;100.00;93424.00;2100753;28;20101;-85
2021/06/11 04:05:23;;;;;;;1.63;1.52;;;;;;;8.55;100.00;93425.13;2107713;28;20409;-86
2021/06/11 04:06:31;;;;;;;1.48;1.40;;;;;;;8.63;100.00;93425.06;2099197;28;20098;-87
2021/06/11 04:07:56;;;;;;;1.48;1.38;;;;;;;8.63;100.00;93423.16;2098391;28;20532;-86
2021/06/11 04:09:01;;;;;;;1.60;1.50;;;;;;;8.60;100.00;93426.59;2110762;28;20031;-86
2021/06/11 04:10:11;;;;;;;1.40;1.30;;;;;;;8.66;100.00;93427.72;2110762;28;20031;-88
2021/06/11 04:11:25;;;;;;;1.83;1.52;;;;;;;8.66;100.00;93424.28;2109740;27;20020;-87
2021/06/11 04:12:36;;;;;;;1.65;1.55;;;;;;;8.65;100.00;93417.44;2101491;28;20081;-86
2021/06/11 04:13:43;;;;;;;2.70;1.50;;;;;;;8.67;100.00;93423.13;2103695;28;20084;-87
2021/06/11 04:14:51;;;;;;;1.38;1.27;;;;;;;8.68;100.00;93425.38;2095873;28;20024;-87
2021/06/11 04:15:54;;;;;;;1.40;1.40;;;;;;;8.71;100.00;93424.59;2105954;27;20465;-88
2021/06/11 04:16:58;;;;;;;1.50;1.50;;;;;;;8.71;100.00;93427.28;2112448;28;20095;-83
2021/06/11 04:18:03;;;;;;;1.35;1.35;;;;;;;8.73;100.00;93427.63;2114764;28;20043;-85
2021/06/11 04:19:09;;;;;;;1.30;1.30;;;;;;;8.74;100.00;93418.50;2106342;28;20028;-88
2021/06/11 04:20:17;;;;;;;1.30;1.30;;;;;;;8.78;100.00;93421.09;2099791;28;20097;-85
2021/06/11 04:21:25;;;;;;;1.42;1.42;;;;;;;8.82;100.00;93421.81;2094416;28;20591;-85
2021/06/11 04:22:32;;;;;;;1.55;1.45;;;;;;;8.85;100.00;93422.94;2096274;28;20036;-87
2021/06/11 04:23:34;;;;;;;1.50;1.50;;;;;;;8.87;100.00;93429.41;2106849;28;20116;-87
2021/06/11 04:24:37;;;;;;;1.50;1.50;;;;;;;8.90;100.00;93433.19;2098041;28;20672;-87
2021/06/11 04:25:39;;;;;;;1.50;1.50;;;;;;;8.90;100.00;93428.59;2102921;28;20045;-88
2021/06/11 04:26:42;;;;;;;1.50;1.40;;;;;;;8.92;100.00;93426.31;2103313;28;20438;-86
2021/06/11 04:27:45;;;;;;;1.60;1.50;;;;;;;8.95;100.00;93430.06;2090531;28;20390;-85
2021/06/11 04:28:47;;;;;;;1.40;1.35;;;;;;;8.97;100.00;93430.44;2094399;28;20032;-86
2021/06/11 04:29:49;;;;;;;1.70;1.60;;;;;;;8.99;100.00;93434.22;2100708;28;20025;-88
2021/06/11 04:30:53;;;;;;;1.70;1.60;;;;;;;9.01;100.00;93428.50;2101504;28;20468;-88
2021/06/11 04:31:54;;;;;;;1.48;1.48;;;;;;;9.00;100.00;93433.09;2089511;28;20025;-89
2021/06/11 04:32:55;;;;;;;1.30;1.20;;;;;;;9.04;100.00;93431.13;2103460;28;20042;-87
2021/06/11 04:33:58;;;;;;;1.25;1.23;;;;;;;9.06;100.00;93436.81;2101091;28;20059;-88
2021/06/11 04:34:59;;;;;;;1.50;1.50;;;;;;;9.10;100.00;93431.44;2097256;28;20446;-89
2021/06/11 04:35:59;;;;;;;1.40;1.40;;;;;;;9.11;100.00;93435.63;2100566;28;20020;-87
2021/06/11 04:37:00;;;;;;;2.33;1.40;;;;;;;9.16;100.00;93442.44;2099371;28;20481;-87
2021/06/11 04:38:01;;;;;;;1.77;1.40;;;;;;;9.19;100.00;93436.31;2098967;28;20020;-88
2021/06/11 04:39:07;;;;;;;1.55;1.45;;;;;;;9.21;100.00;93440.06;2100300;28;20027;-87
2021/06/11 04:40:09;;;;;;;1.70;1.60;;;;;;;9.22;100.00;93435.50;2103386;28;20024;-89
2021/06/11 04:41:10;;;;;;;1.77;1.67;;;;;;;9.26;100.00;93436.22;2106645;28;20024;-89
2021/06/11 04:42:11;;;;;;;1.30;1.30;;;;;;;9.30;100.00;93442.25;2099173;28;20016;-88
2021/06/11 04:43:13;;;;;;;1.40;1.40;;;;;;;9.33;100.00;93442.22;2100567;28;20464;-88
2021/06/11 04:44:14;;;;;;;1.45;1.45;;;;;;;9.35;100.00;93439.19;2100794;28;20029;-84
2021/06/11 04:45:15;;;;;;;1.50;1.50;;;;;;;9.40;100.00;93440.66;2096901;28;20055;-87
2021/06/11 04:46:15;;;;;;;1.35;1.30;;;;;;;9.43;100.00;93442.50;2103146;28;20089;-89
2021/06/11 04:47:16;;;;;;;1.50;1.45;;;;;;;9.48;100.00;93442.81;2096806;28;20027;-86
2021/06/11 04:48:17;;;;;;;1.58;1.50;;;;;;;9.51;100.00;93444.69;2100354;28;20469;-86
2021/06/11 04:49:17;;;;;;;1.55;1.52;;;;;;;9.53;100.00;93445.03;2111463;28;20023;-87
2021/06/11 04:50:18;;;;;;;1.80;1.63;;;;;;;9.55;100.00;93444.63;2090519;28;20504;-87
2021/06/11 04:51:20;;;;;;;1.80;1.70;;;;;;;9.57;100.00;93445.75;2090926;28;20528;-87
2021/06/11 04:52:21;;;;;;;1.90;1.80;;;;;;;9.61;100.00;93445.69;2103960;28;20032;-86
2021/06/11 04:53:21;;;;;;;1.40;1.40;;;;;;;9.63;100.00;93448.72;2095783;28;20790;-86
2021/06/11 04:54:22;;;;;;;1.60;1.50;;;;;;;9.68;100.00;93442.19;2092723;28;20025;-86
2021/06/11 04:55:23;;;;;;;2.05;1.83;;;;;;;9.71;100.00;93449.41;2096041;28;20067;-87
2021/06/11 04:56:24;;;;;;;1.55;1.50;;;;;;;9.76;100.00;93448.94;2103798;28;20209;-86
2021/06/11 04:57:24;;;;;;;1.58;1.50;;;;;;;9.80;100.00;93447.00;2105641;28;20034;-88
2021/06/11 04:58:27;;;;;;;1.70;1.60;;;;;;;9.82;100.00;93445.41;2092905;28;20100;-89
2021/06/11 04:59:28;;;;;;;1.70;1.60;;;;;;;9.86;100.00;93439.28;2102398;28;20031;-89
2021/06/11 05:00:28;;;;;;;1.88;1.75;;;;;;;9.92;100.00;93445.66;2098829;28;20020;-87